Soddy Daisy, Tennessee
Current Conditions -  °F | °C
As of 5:53 PM on Tuesday 27 Jan 2015 (Local Time) from KCHA Reporting Station
Broken Clouds Broken Clouds  
Wind Chill: 33°   Ceiling: 2400
Heat Index: 40°   Visibility: 10mi
Dew Point: 31°   Wind: 12mph
Humidity: 70%   Direction: 350°N
Pressure: 30.1"   Gusts: NA
Location:  35.24°N, 85.19°W
Report Text: KCHA 272253Z 35010KT 10SM BKN024 04/M01 A3010 RMK AO2 SLP195 T00441006
Loading
Personal Weather Stations






























Interactive Weather Map New forecast layout! Learn more

10-Day Weather Forecast

Advertisements
Track Severe Weather on mobile